Time;durP1;ratioP1;P1;durP2;ratioP2;P2;SDS_P1;SDS_P2;PMS_P1;PMS_P2;Temp;Humidity;BMP_temperature;BMP_pressure;BME280_temperature;BME280_humidity;BME280_pressure;Samples;Min_cycle;Max_cycle;Signal;HPM_P1;HPM_P2
2021/12/12 00:02:10;;;;;;;14.63;9.18;;;0.60;99.90;;;;;;5113652;28;20050;-66
2021/12/12 00:04:38;;;;;;;13.82;8.68;;;0.60;99.90;;;;;;5106609;28;20361;-66
2021/12/12 00:07:15;;;;;;;13.50;8.88;;;0.60;99.90;;;;;;5093458;28;20024;-66
2021/12/12 00:09:44;;;;;;;15.05;9.02;;;0.50;99.90;;;;;;5092745;28;20492;-66
2021/12/12 00:12:32;;;;;;;13.13;9.25;;;0.60;99.90;;;;;;5093231;28;20016;-66
2021/12/12 00:14:58;;;;;;;14.38;8.82;;;0.60;99.90;;;;;;5103072;28;20075;-66
2021/12/12 00:17:26;;;;;;;13.52;8.73;;;0.60;99.90;;;;;;5113789;28;20031;-66
2021/12/12 00:19:52;;;;;;;12.70;8.43;;;0.60;99.90;;;;;;5113576;28;20031;-66
2021/12/12 00:22:23;;;;;;;14.38;8.63;;;0.60;99.90;;;;;;5113421;28;20020;-66
2021/12/12 00:24:50;;;;;;;13.38;8.55;;;0.60;99.90;;;;;;5104426;28;20072;-66
2021/12/12 00:27:16;;;;;;;13.43;8.38;;;0.50;99.90;;;;;;5092921;28;20027;-66
2021/12/12 00:29:44;;;;;;;13.45;8.52;;;0.50;99.90;;;;;;5092914;28;20038;-66
2021/12/12 00:32:14;;;;;;;13.00;8.40;;;0.50;99.90;;;;;;5093245;28;20115;-66
2021/12/12 00:34:48;;;;;;;11.00;7.60;;;0.50;99.90;;;;;;5098969;28;20741;-66
2021/12/12 00:37:14;;;;;;;13.20;8.70;;;0.50;99.90;;;;;;5113285;28;20627;-66
2021/12/12 00:39:44;;;;;;;15.43;8.65;;;0.50;99.90;;;;;;5113105;28;20042;-66
2021/12/12 00:42:13;;;;;;;14.07;8.07;;;0.50;99.90;;;;;;5113802;28;20023;-66
2021/12/12 00:44:45;;;;;;;11.65;8.02;;;0.50;99.90;;;;;;5108817;28;20032;-66
2021/12/12 00:47:12;;;;;;;12.15;8.25;;;0.50;99.90;;;;;;5113196;28;20104;-65
2021/12/12 00:49:41;;;;;;;12.98;7.55;;;0.50;99.90;;;;;;5112956;27;20031;-64
2021/12/12 00:52:10;;;;;;;14.43;8.48;;;0.50;99.90;;;;;;5113144;28;20027;-64
2021/12/12 00:54:37;;;;;;;11.70;8.13;;;0.50;99.90;;;;;;5112861;28;20027;-64
2021/12/12 00:57:07;;;;;;;14.75;7.68;;;0.50;99.90;;;;;;5112623;28;20040;-64
2021/12/12 00:59:35;;;;;;;13.40;8.13;;;0.50;99.90;;;;;;5113394;28;20031;-64
2021/12/12 01:02:05;;;;;;;13.80;8.68;;;0.60;99.90;;;;;;5112317;28;20093;-64
2021/12/12 01:04:42;;;;;;;13.82;8.57;;;0.60;99.90;;;;;;5113014;28;20031;-64
2021/12/12 01:07:14;;;;;;;14.25;8.60;;;0.60;99.90;;;;;;5112649;28;20031;-64
2021/12/12 01:09:47;;;;;;;12.82;8.13;;;0.70;99.90;;;;;;5112596;28;20089;-64
2021/12/12 01:12:19;;;;;;;12.23;7.80;;;0.60;99.90;;;;;;5112478;28;20104;-64
2021/12/12 01:14:51;;;;;;;15.35;8.23;;;0.60;99.90;;;;;;5112411;28;20062;-64
2021/12/12 01:17:21;;;;;;;13.23;8.00;;;0.70;99.90;;;;;;5112339;28;20038;-64
2021/12/12 01:19:54;;;;;;;13.45;8.65;;;0.70;99.90;;;;;;5112346;28;20043;-64
2021/12/12 01:22:28;;;;;;;14.50;8.50;;;0.70;99.90;;;;;;5092999;28;20495;-64
2021/12/12 01:24:57;;;;;;;13.18;7.65;;;0.70;99.90;;;;;;5092085;28;20028;-65
2021/12/12 01:27:23;;;;;;;15.18;9.15;;;0.70;99.90;;;;;;5091957;28;20545;-64
2021/12/12 01:29:49;;;;;;;13.40;8.05;;;0.70;99.90;;;;;;5092137;28;20020;-64
2021/12/12 01:32:25;;;;;;;14.60;8.32;;;0.70;99.90;;;;;;5091981;28;20074;-64
2021/12/12 01:34:51;;;;;;;12.57;8.45;;;0.70;99.90;;;;;;5092074;28;20119;-64
2021/12/12 01:40:04;;;;;;;10.38;7.32;;;0.70;99.90;;;;;;5092135;28;20028;-64
2021/12/12 01:42:58;;;;;;;11.27;7.28;;;0.70;99.90;;;;;;5091643;28;20107;-64
2021/12/12 01:45:45;;;;;;;12.38;7.15;;;0.70;99.90;;;;;;5089623;28;20123;-64
2021/12/12 01:48:24;;;;;;;12.13;6.90;;;0.60;99.90;;;;;;5091874;28;20506;-64
2021/12/12 01:50:53;;;;;;;11.75;6.80;;;0.60;99.90;;;;;;5091681;28;20689;-64
2021/12/12 01:53:26;;;;;;;11.07;7.10;;;0.60;99.90;;;;;;5092171;28;20032;-64
2021/12/12 01:56:06;;;;;;;10.80;6.88;;;0.60;99.90;;;;;;5091592;28;20032;-64
2021/12/12 01:58:35;;;;;;;11.13;7.17;;;0.60;99.90;;;;;;5091926;28;20025;-64
2021/12/12 02:01:12;;;;;;;11.27;6.53;;;0.70;99.90;;;;;;5095667;28;20296;-64
2021/12/12 02:03:52;;;;;;;10.85;7.07;;;0.70;99.90;;;;;;5112253;28;20027;-64
2021/12/12 02:06:19;;;;;;;10.88;7.68;;;0.70;99.90;;;;;;5111828;28;20092;-65
2021/12/12 02:08:49;;;;;;;11.63;7.53;;;0.70;99.90;;;;;;5111945;28;20556;-64
2021/12/12 02:11:20;;;;;;;11.50;7.88;;;0.60;99.90;;;;;;5112265;28;20032;-65
2021/12/12 02:13:49;;;;;;;13.63;7.90;;;0.60;99.90;;;;;;5112162;28;20115;-64
2021/12/12 02:16:17;;;;;;;11.07;7.27;;;0.60;99.90;;;;;;5107019;28;20048;-64
2021/12/12 02:18:48;;;;;;;12.70;7.55;;;0.60;99.90;;;;;;5091416;28;20538;-64
2021/12/12 02:21:25;;;;;;;10.65;6.90;;;0.70;99.90;;;;;;5091533;28;20028;-64
2021/12/12 02:55:44;;;;;;;9.80;6.97;;;0.30;99.90;;;;;;5094778;28;20040;-64
2021/12/12 02:58:14;;;;;;;11.43;6.60;;;0.30;99.90;;;;;;5094978;28;20024;-65
2021/12/12 03:00:56;;;;;;;8.32;5.88;;;0.30;99.90;;;;;;5094610;28;20052;-64
2021/12/12 03:03:24;;;;;;;10.80;6.78;;;0.30;99.90;;;;;;5094893;28;20027;-64
2021/12/12 03:05:50;;;;;;;10.50;6.63;;;0.30;99.90;;;;;;5094595;28;20028;-64
2021/12/12 03:08:16;;;;;;;12.60;7.20;;;0.30;99.90;;;;;;5094395;28;20487;-64
2021/12/12 03:10:45;;;;;;;10.43;7.00;;;0.30;99.90;;;;;;5094432;28;20024;-64
2021/12/12 03:13:11;;;;;;;12.30;6.70;;;0.30;99.90;;;;;;5094366;28;20410;-64
2021/12/12 03:15:40;;;;;;;10.82;6.88;;;0.20;99.90;;;;;;5094129;28;20089;-64
2021/12/12 03:18:14;;;;;;;12.73;6.65;;;0.20;99.90;;;;;;5094043;28;20028;-65
2021/12/12 03:20:47;;;;;;;12.38;6.90;;;0.20;99.90;;;;;;5094308;28;20020;-64
2021/12/12 03:23:29;;;;;;;10.13;6.93;;;0.10;99.90;;;;;;5094643;28;20414;-64
2021/12/12 03:26:01;;;;;;;13.82;7.50;;;0.10;99.90;;;;;;5094406;28;20051;-65
2021/12/12 03:28:31;;;;;;;12.10;7.18;;;0.10;99.90;;;;;;5094495;28;20036;-65
2021/12/12 03:31:00;;;;;;;11.75;7.32;;;0.10;99.90;;;;;;5094413;28;20035;-65
2021/12/12 03:33:29;;;;;;;12.25;7.32;;;0.10;99.90;;;;;;5094440;28;20032;-65
2021/12/12 03:35:58;;;;;;;12.50;7.68;;;0.10;99.90;;;;;;5094100;28;20093;-65
2021/12/12 03:38:29;;;;;;;11.95;7.65;;;0.10;99.90;;;;;;5093867;28;20472;-65
2021/12/12 03:40:59;;;;;;;11.65;7.32;;;0.10;99.90;;;;;;5094079;28;20364;-66
2021/12/12 03:43:25;;;;;;;11.40;6.72;;;0.10;99.90;;;;;;5092736;28;20030;-65
2021/12/12 03:45:51;;;;;;;10.98;7.22;;;0.10;99.90;;;;;;5093500;28;20111;-65
2021/12/12 03:48:29;;;;;;;10.27;7.10;;;0.10;99.90;;;;;;5094001;28;20036;-65
2021/12/12 03:50:58;;;;;;;10.95;7.28;;;0.10;99.90;;;;;;5093515;28;20174;-65
2021/12/12 03:53:26;;;;;;;11.48;7.32;;;0.10;99.90;;;;;;5093906;28;20475;-65
2021/12/12 03:55:52;;;;;;;11.98;7.00;;;0.10;99.90;;;;;;5093545;28;20062;-64
2021/12/12 03:58:19;;;;;;;11.20;7.30;;;0.10;99.90;;;;;;5093760;28;20031;-64
2021/12/12 04:00:54;;;;;;;12.25;7.38;;;0.10;99.90;;;;;;5093381;28;20261;-64
2021/12/12 04:03:21;;;;;;;11.70;7.07;;;0.10;99.90;;;;;;5093764;28;20431;-64
2021/12/12 04:05:49;;;;;;;12.68;7.63;;;0.10;99.90;;;;;;5093139;28;20123;-64
2021/12/12 04:08:15;;;;;;;12.88;8.02;;;0.20;99.90;;;;;;5093329;28;20028;-64
2021/12/12 04:10:42;;;;;;;11.77;7.18;;;0.20;99.90;;;;;;5093156;28;20127;-64
2021/12/12 04:13:08;;;;;;;12.93;7.80;;;0.20;99.90;;;;;;5093135;28;20028;-64
2021/12/12 04:15:34;;;;;;;12.27;7.80;;;0.20;99.90;;;;;;5093413;28;20032;-64
2021/12/12 04:18:00;;;;;;;12.00;7.82;;;0.20;99.90;;;;;;5092964;28;20404;-64
2021/12/12 04:20:34;;;;;;;13.07;7.40;;;0.10;99.90;;;;;;5093156;28;20087;-64
2021/12/12 04:23:00;;;;;;;12.73;7.88;;;0.10;99.90;;;;;;5092881;28;20032;-63
2021/12/12 04:25:26;;;;;;;12.90;8.05;;;0.20;99.90;;;;;;5093173;28;20024;-63
2021/12/12 04:27:53;;;;;;;12.32;7.85;;;0.20;99.90;;;;;;5091364;28;20531;-63
2021/12/12 04:30:23;;;;;;;15.30;8.05;;;0.20;99.90;;;;;;5111124;28;20028;-64
2021/12/12 04:32:49;;;;;;;13.65;7.10;;;0.30;99.90;;;;;;5113036;28;20110;-64
2021/12/12 04:35:27;;;;;;;12.32;7.72;;;0.20;99.90;;;;;;5113204;28;20544;-65
2021/12/12 04:37:56;;;;;;;12.00;6.82;;;0.10;99.90;;;;;;5113276;28;20032;-65
2021/12/12 04:40:25;;;;;;;14.18;8.50;;;0.10;99.90;;;;;;5095289;28;20022;-65
2021/12/12 04:42:54;;;;;;;13.63;7.72;;;0.10;99.90;;;;;;5094506;28;20384;-65
2021/12/12 04:45:33;;;;;;;13.43;7.40;;;0.00;99.90;;;;;;5096650;28;20040;-65
2021/12/12 04:51:25;;;;;;;10.48;6.93;;;0.00;99.90;;;;;;5112974;28;20478;-65
2021/12/12 04:54:04;;;;;;;11.40;7.15;;;0.00;99.90;;;;;;5112563;28;20484;-65
2021/12/12 04:57:01;;;;;;;11.10;7.53;;;0.00;99.90;;;;;;5112849;28;20047;-65
2021/12/12 04:59:56;;;;;;;12.00;7.28;;;0.10;99.90;;;;;;5109029;28;20055;-64
2021/12/12 05:02:31;;;;;;;13.07;7.63;;;0.10;99.90;;;;;;5103261;28;20480;-64
2021/12/12 05:05:06;;;;;;;12.30;7.25;;;0.10;99.90;;;;;;5112961;28;20023;-64
2021/12/12 05:07:56;;;;;;;12.02;7.57;;;0.10;99.90;;;;;;5112957;28;20085;-64
2021/12/12 05:10:25;;;;;;;14.30;8.18;;;0.10;99.90;;;;;;5109961;28;20020;-64
2021/12/12 05:12:56;;;;;;;11.35;7.50;;;0.10;99.90;;;;;;5112425;28;20031;-64
2021/12/12 05:15:29;;;;;;;11.43;6.97;;;0.10;99.90;;;;;;5112508;28;20031;-64
2021/12/12 05:17:59;;;;;;;12.82;8.23;;;0.20;99.90;;;;;;5112389;28;20377;-64
2021/12/12 05:21:02;;;;;;;15.02;8.68;;;0.20;99.90;;;;;;5100139;28;20035;-64
2021/12/12 05:23:30;;;;;;;12.50;7.82;;;0.20;99.90;;;;;;5070361;28;20031;-64
2021/12/12 05:25:59;;;;;;;11.75;8.05;;;0.20;99.90;;;;;;5102283;28;20023;-64
2021/12/12 05:28:33;;;;;;;13.00;7.50;;;0.20;99.90;;;;;;5112723;28;20110;-64
2021/12/12 05:31:00;;;;;;;13.27;6.85;;;0.20;99.90;;;;;;5096618;28;20032;-64
2021/12/12 05:33:29;;;;;;;13.85;7.53;;;0.20;99.90;;;;;;5092086;28;20025;-64
2021/12/12 05:35:56;;;;;;;7.20;3.30;;;0.20;99.90;;;;;;5103167;28;20169;-64
2021/12/12 05:38:23;;;;;;;9.10;2.65;;;0.30;99.90;;;;;;5092010;28;20208;-65
2021/12/12 05:40:49;;;;;;;9.77;6.47;;;3.00;99.90;;;;;;5093816;28;20119;-64
2021/12/12 05:43:17;;;;;;;10.10;7.13;;;5.10;99.90;;;;;;5094379;28;20028;-63
2021/12/12 05:45:45;;;;;;;10.65;7.10;;;4.80;99.90;;;;;;5106221;28;20030;-63
2021/12/12 05:48:11;;;;;;;11.40;7.00;;;4.00;99.90;;;;;;5101359;28;20035;-65
2021/12/12 05:50:39;;;;;;;11.27;5.97;;;3.20;99.90;;;;;;5102533;28;20024;-65
2021/12/12 05:53:06;;;;;;;10.52;6.97;;;2.50;99.90;;;;;;5100805;28;20453;-65
2021/12/12 05:55:35;;;;;;;10.68;6.95;;;2.00;99.90;;;;;;5102722;28;20379;-66
2021/12/12 05:58:04;;;;;;;10.00;7.20;;;1.70;99.90;;;;;;5101283;28;20494;-67
2021/12/12 06:00:36;;;;;;;9.98;7.03;;;1.60;99.90;;;;;;5100157;28;20131;-69
2021/12/12 06:03:06;;;;;;;10.80;7.10;;;1.50;99.90;;;;;;5101255;28;20024;-63
2021/12/12 06:05:32;;;;;;;11.15;7.57;;;1.50;99.90;;;;;;5102522;28;20026;-63
2021/12/12 06:07:58;;;;;;;11.55;7.15;;;1.50;99.90;;;;;;5104533;28;20032;-62
2021/12/12 06:10:25;;;;;;;13.20;7.88;;;1.40;99.90;;;;;;5112792;28;20028;-64
2021/12/12 06:12:52;;;;;;;12.57;7.93;;;1.20;99.90;;;;;;5105871;28;20024;-66
2021/12/12 06:15:21;;;;;;;11.48;7.68;;;1.10;99.90;;;;;;5107185;28;20568;-64
2021/12/12 06:17:47;;;;;;;11.90;7.53;;;1.00;99.90;;;;;;5104675;28;20047;-64
2021/12/12 06:20:15;;;;;;;11.70;6.95;;;1.00;99.90;;;;;;5102567;28;20077;-64
2021/12/12 06:22:41;;;;;;;10.75;7.35;;;0.90;99.90;;;;;;5104168;28;20055;-65
2021/12/12 06:25:08;;;;;;;11.80;7.63;;;0.80;99.90;;;;;;5104821;28;20054;-65
2021/12/12 06:27:35;;;;;;;11.82;7.18;;;0.80;99.90;;;;;;5108857;28;20024;-64
2021/12/12 06:30:03;;;;;;;10.75;6.95;;;0.70;99.90;;;;;;5095286;28;20028;-64
2021/12/12 06:32:29;;;;;;;11.80;7.63;;;0.70;99.90;;;;;;5095298;28;20403;-63
2021/12/12 06:34:58;;;;;;;12.05;6.60;;;0.70;99.90;;;;;;5108170;28;20246;-63
2021/12/12 06:37:24;;;;;;;12.45;8.02;;;0.70;99.90;;;;;;5115371;28;20015;-63
2021/12/12 06:39:51;;;;;;;10.13;6.72;;;0.90;99.90;;;;;;5115477;28;20107;-63
2021/12/12 06:42:18;;;;;;;12.63;7.78;;;0.80;99.90;;;;;;5115364;28;20028;-62
2021/12/12 06:44:45;;;;;;;13.60;7.97;;;0.70;99.90;;;;;;5115420;28;20555;-62
2021/12/12 06:47:14;;;;;;;14.15;7.68;;;0.70;99.90;;;;;;5115256;28;20019;-63
2021/12/12 06:49:41;;;;;;;13.90;8.23;;;0.60;99.90;;;;;;5115321;28;20426;-63
2021/12/12 06:52:09;;;;;;;14.95;8.48;;;0.50;99.90;;;;;;5115114;28;20378;-63
2021/12/12 06:54:36;;;;;;;11.05;7.60;;;0.60;99.90;;;;;;5115059;28;20036;-63
2021/12/12 06:57:09;;;;;;;13.73;7.60;;;0.60;99.90;;;;;;5114968;28;20023;-62
2021/12/12 06:59:37;;;;;;;14.30;8.25;;;0.50;99.90;;;;;;5115175;28;20019;-62
2021/12/12 07:02:06;;;;;;;13.77;8.07;;;0.50;99.90;;;;;;5114680;28;20043;-62
2021/12/12 07:04:34;;;;;;;14.25;8.57;;;0.40;99.90;;;;;;5115314;28;20039;-62
2021/12/12 07:07:03;;;;;;;12.40;8.15;;;0.50;99.90;;;;;;5114798;28;20452;-65
2021/12/12 07:09:30;;;;;;;12.45;7.25;;;0.50;99.90;;;;;;5114962;28;20023;-63
2021/12/12 07:12:00;;;;;;;20.25;7.55;;;0.50;99.90;;;;;;5114988;28;20031;-64
2021/12/12 07:14:27;;;;;;;13.45;8.55;;;1.40;99.90;;;;;;5114835;28;20080;-63
2021/12/12 07:16:55;;;;;;;12.45;7.38;;;2.10;99.90;;;;;;5114805;28;20083;-63
2021/12/12 07:19:22;;;;;;;11.00;7.15;;;1.70;99.90;;;;;;5114693;27;20479;-63
2021/12/12 07:21:48;;;;;;;11.75;7.82;;;1.60;99.90;;;;;;5114942;28;20038;-63
2021/12/12 07:24:15;;;;;;;12.40;8.50;;;1.60;99.90;;;;;;5114575;28;20149;-64
2021/12/12 07:26:42;;;;;;;15.50;7.38;;;1.30;99.90;;;;;;5114715;28;20106;-62
2021/12/12 07:29:08;;;;;;;13.45;8.13;;;1.50;99.90;;;;;;5111214;28;20031;-62
2021/12/12 07:31:36;;;;;;;13.13;8.15;;;1.50;99.90;;;;;;5102913;28;20498;-62
2021/12/12 07:34:07;;;;;;;14.27;7.90;;;1.40;99.90;;;;;;5108408;28;20055;-62
2021/12/12 07:36:34;;;;;;;;;;;1.30;99.90;;;;;;5095834;28;20118;-61
2021/12/12 07:39:05;;;;;;;13.63;7.20;;;1.20;99.90;;;;;;5094730;28;19990;-62
2021/12/12 07:41:33;;;;;;;13.32;8.30;;;1.10;99.90;;;;;;5102082;28;20077;-62
2021/12/12 07:44:00;;;;;;;12.07;8.27;;;1.10;99.90;;;;;;5104091;28;20030;-62
2021/12/12 07:46:27;;;;;;;13.77;7.68;;;1.00;99.90;;;;;;5105363;27;20103;-63
2021/12/12 07:48:54;;;;;;;14.38;8.65;;;1.00;99.90;;;;;;5108557;28;20089;-63
2021/12/12 07:51:21;;;;;;;15.13;8.98;;;0.90;99.90;;;;;;5100085;28;20481;-62
2021/12/12 07:53:52;;;;;;;12.63;8.60;;;0.90;99.90;;;;;;5104335;28;20047;-62
2021/12/12 07:56:19;;;;;;;;;;;0.90;99.90;;;;;;5114182;28;20084;-63
2021/12/12 07:58:45;;;;;;;17.17;8.93;;;0.80;99.90;;;;;;5113951;28;20015;-63
2021/12/12 08:01:13;;;;;;;16.15;9.70;;;0.80;99.90;;;;;;5113663;28;20460;-63
2021/12/12 08:03:40;;;;;;;16.52;9.65;;;0.70;99.90;;;;;;5113806;28;20023;-63
2021/12/12 08:06:08;;;;;;;16.92;9.75;;;0.60;99.90;;;;;;5113602;28;20023;-62
2021/12/12 08:08:34;;;;;;;17.17;9.73;;;0.60;99.90;;;;;;5113617;28;20107;-63
2021/12/12 08:11:01;;;;;;;14.10;8.60;;;0.60;99.90;;;;;;5113823;28;20027;-63
2021/12/12 08:13:27;;;;;;;18.42;10.20;;;0.60;99.90;;;;;;5113819;28;20089;-65
2021/12/12 08:15:53;;;;;;;17.38;9.32;;;0.50;99.90;;;;;;5094421;28;20046;-63
2021/12/12 08:18:20;;;;;;;17.58;10.40;;;0.50;99.90;;;;;;5093042;28;20565;-63
2021/12/12 08:20:49;;;;;;;19.45;9.52;;;0.40;99.90;;;;;;5093228;28;20032;-62
2021/12/12 08:23:17;;;;;;;18.95;10.30;;;0.40;99.90;;;;;;5093172;28;20036;-63
2021/12/12 08:25:45;;;;;;;19.48;11.23;;;0.40;99.90;;;;;;5093045;28;20024;-63
2021/12/12 08:28:12;;;;;;;20.02;11.50;;;0.40;99.90;;;;;;5092637;28;20024;-63
2021/12/12 08:30:38;;;;;;;22.08;11.70;;;0.40;99.90;;;;;;5092699;28;20533;-63
2021/12/12 08:33:07;;;;;;;22.88;11.77;;;0.40;99.90;;;;;;5092738;28;20486;-63
2021/12/12 08:35:34;;;;;;;24.17;12.05;;;0.40;99.90;;;;;;5092740;28;20529;-62
2021/12/12 08:38:04;;;;;;;26.10;13.55;;;0.40;99.90;;;;;;5092618;28;20024;-63
2021/12/12 08:40:34;;;;;;;23.15;11.88;;;0.30;99.90;;;;;;5092850;28;20018;-64
2021/12/12 08:43:00;;;;;;;24.97;12.73;;;0.40;99.90;;;;;;5093052;28;20441;-63
2021/12/12 08:45:30;;;;;;;29.02;14.43;;;0.50;99.90;;;;;;5092723;28;20028;-64
2021/12/12 08:47:58;;;;;;;28.27;14.82;;;0.50;99.90;;;;;;5092610;28;20024;-66
2021/12/12 08:50:28;;;;;;;30.42;14.27;;;0.50;99.90;;;;;;5092465;28;20020;-65
2021/12/12 08:52:55;;;;;;;35.80;15.25;;;2.40;99.90;;;;;;5092604;28;20485;-65
2021/12/12 08:55:33;;;;;;;33.28;16.63;;;2.60;99.90;;;;;;5092260;28;20028;-65
2021/12/12 08:58:14;;;;;;;33.33;15.25;;;2.20;99.90;;;;;;5092505;28;20020;-65
2021/12/12 09:00:58;;;;;;;33.08;15.27;;;1.80;99.90;;;;;;5094727;28;20047;-65
2021/12/12 09:03:32;;;;;;;34.50;14.75;;;1.50;99.90;;;;;;5092359;28;20102;-65
2021/12/12 09:05:59;;;;;;;25.05;12.27;;;1.30;99.90;;;;;;5092237;28;20107;-65
2021/12/12 09:08:44;;;;;;;31.17;14.73;;;2.90;99.90;;;;;;5092144;28;20036;-65
2021/12/12 09:11:30;;;;;;;33.88;16.42;;;3.20;99.90;;;;;;5091926;28;20035;-65
2021/12/12 09:14:17;;;;;;;40.13;17.38;;;2.60;99.90;;;;;;5092309;28;20027;-65
2021/12/12 09:17:09;;;;;;;35.08;15.52;;;2.20;99.90;;;;;;5092146;28;20032;-65
2021/12/12 09:19:38;;;;;;;38.95;17.02;;;1.90;99.90;;;;;;5090133;28;20081;-65
2021/12/12 09:22:14;;;;;;;38.15;16.92;;;1.70;99.90;;;;;;5091998;28;20128;-65
2021/12/12 09:25:03;;;;;;;30.40;14.98;;;1.60;99.90;;;;;;5100405;28;20032;-65
2021/12/12 09:27:44;;;;;;;39.05;16.85;;;1.30;99.90;;;;;;5086283;28;20024;-65
2021/12/12 09:30:15;;;;;;;34.35;16.20;;;1.20;99.90;;;;;;5091993;28;20108;-64
2021/12/12 09:32:45;;;;;;;35.05;17.92;;;1.10;99.90;;;;;;5091922;28;20527;-64
2021/12/12 09:35:19;;;;;;;41.70;19.00;;;1.10;99.90;;;;;;5092022;28;20035;-65
2021/12/12 09:37:54;;;;;;;39.67;18.05;;;1.10;99.90;;;;;;5092174;28;20032;-64
2021/12/12 09:40:44;;;;;;;43.72;17.88;;;1.00;99.90;;;;;;5091893;28;20103;-65
2021/12/12 09:43:38;;;;;;;42.95;18.35;;;1.00;99.90;;;;;;5096077;28;20035;-65
2021/12/12 09:46:44;;;;;;;42.55;16.85;;;0.80;99.90;;;;;;5096368;28;20028;-64
2021/12/12 09:52:42;;;;;;;41.95;16.92;;;1.30;99.90;;;;;;5096153;28;20515;-64
2021/12/12 09:55:17;;;;;;;31.88;15.38;;;1.30;99.90;;;;;;5095776;28;20078;-65
2021/12/12 09:57:52;;;;;;;36.92;15.35;;;1.10;99.90;;;;;;5095825;28;20032;-65
2021/12/12 10:00:26;;;;;;;35.38;16.52;;;0.90;99.90;;;;;;5095773;28;20042;-65
2021/12/12 10:03:22;;;;;;;39.83;16.33;;;0.90;99.90;;;;;;5096002;28;20391;-65
2021/12/12 10:06:09;;;;;;;41.08;17.58;;;0.80;99.90;;;;;;5095742;28;20027;-65
2021/12/12 10:08:58;;;;;;;36.20;15.77;;;0.70;99.90;;;;;;5096067;28;20024;-65
2021/12/12 10:11:37;;;;;;;43.63;17.80;;;0.60;99.90;;;;;;5095598;28;20471;-64
2021/12/12 10:14:10;;;;;;;41.65;17.25;;;0.50;99.90;;;;;;5095675;28;20020;-65
2021/12/12 10:16:36;;;;;;;37.72;16.30;;;0.50;99.90;;;;;;5110521;28;20042;-65
2021/12/12 10:19:17;;;;;;;35.20;16.30;;;0.60;99.90;;;;;;5095479;28;20102;-65
2021/12/12 10:22:05;;;;;;;;;;;0.50;99.90;;;;;;5101343;28;20480;-65
2021/12/12 10:24:37;;;;;;;27.55;13.55;;;0.50;99.90;;;;;;5095336;28;20279;-64
2021/12/12 10:27:08;;;;;;;32.88;14.90;;;0.50;99.90;;;;;;5098180;28;20047;-65
2021/12/12 10:29:48;;;;;;;32.20;14.38;;;0.50;99.90;;;;;;5095379;28;20017;-64
2021/12/12 10:32:23;;;;;;;31.00;14.48;;;0.50;99.90;;;;;;5095229;28;20032;-65
2021/12/12 10:35:01;;;;;;;31.02;15.77;;;0.50;99.90;;;;;;5095485;28;20032;-65
2021/12/12 10:37:48;;;;;;;30.13;14.27;;;0.50;99.90;;;;;;5095047;28;20108;-65
2021/12/12 10:40:21;;;;;;;31.70;15.18;;;0.60;99.90;;;;;;5095391;28;20020;-65
2021/12/12 10:42:56;;;;;;;32.05;15.07;;;0.60;99.90;;;;;;5095177;28;20024;-65
2021/12/12 10:45:31;;;;;;;34.58;15.45;;;0.60;99.90;;;;;;5095268;28;20074;-65
2021/12/12 10:48:18;;;;;;;29.38;14.30;;;0.60;99.90;;;;;;5094991;28;20024;-64
2021/12/12 10:51:00;;;;;;;32.67;14.00;;;0.60;99.90;;;;;;5095175;28;20020;-65
2021/12/12 10:53:34;;;;;;;30.88;14.77;;;0.60;99.90;;;;;;5094173;28;20020;-65
2021/12/12 10:56:37;;;;;;;33.10;14.25;;;0.50;99.90;;;;;;5095015;28;20047;-64
2021/12/12 10:59:25;;;;;;;33.67;14.90;;;0.60;99.90;;;;;;5112002;28;20024;-65
2021/12/12 11:01:55;;;;;;;34.10;14.70;;;0.60;99.90;;;;;;5114558;28;20067;-63
2021/12/12 11:04:37;;;;;;;36.05;14.80;;;0.60;99.90;;;;;;5114941;28;20062;-63
2021/12/12 11:07:10;;;;;;;42.28;15.77;;;0.60;99.90;;;;;;5115059;28;20070;-63
2021/12/12 11:09:44;;;;;;;31.58;13.52;;;0.50;99.90;;;;;;5115273;28;20028;-63
2021/12/12 11:12:26;;;;;;;31.70;14.35;;;0.50;99.90;;;;;;5114671;28;20042;-63
2021/12/12 11:15:07;;;;;;;45.88;14.38;;;0.50;99.90;;;;;;5114720;28;20063;-63
2021/12/12 11:17:41;;;;;;;32.80;13.02;;;0.50;99.90;;;;;;5114884;28;20019;-63
2021/12/12 11:20:22;;;;;;;33.33;14.85;;;0.50;99.90;;;;;;5114708;27;20070;-63
2021/12/12 11:22:57;;;;;;;33.50;13.90;;;0.50;99.90;;;;;;5113338;28;20031;-63
2021/12/12 11:25:29;;;;;;;32.35;13.52;;;0.40;99.90;;;;;;5114473;28;20072;-63
2021/12/12 11:28:02;;;;;;;31.20;13.70;;;0.40;99.90;;;;;;5114685;28;20031;-63
2021/12/12 11:30:53;;;;;;;42.20;14.45;;;1.10;99.90;;;;;;5114428;28;20580;-63
2021/12/12 11:33:21;;;;;;;32.22;14.48;;;1.40;99.90;;;;;;5114263;28;20390;-63
2021/12/12 11:35:53;;;;;;;34.05;13.50;;;1.40;99.90;;;;;;5114540;28;20089;-63
2021/12/12 11:38:47;;;;;;;39.08;13.98;;;1.40;99.90;;;;;;5114491;27;20043;-65
2021/12/12 11:41:15;;;;;;;37.30;15.00;;;1.30;99.90;;;;;;5114532;28;20030;-65
2021/12/12 11:44:02;;;;;;;33.47;13.30;;;1.20;99.90;;;;;;5114053;28;20053;-65
2021/12/12 11:46:30;;;;;;;35.28;14.57;;;1.20;99.90;;;;;;5114286;28;20031;-65
2021/12/12 11:49:14;;;;;;;33.17;14.38;;;1.20;99.90;;;;;;5112828;28;20096;-65
2021/12/12 11:51:49;;;;;;;27.77;12.52;;;1.20;99.90;;;;;;5114422;28;20024;-65
2021/12/12 11:54:33;;;;;;;31.48;11.82;;;1.20;99.90;;;;;;5114049;28;20023;-64
2021/12/12 11:57:18;;;;;;;29.05;13.27;;;1.90;99.90;;;;;;5106661;28;20054;-63
2021/12/12 11:59:54;;;;;;;31.98;12.68;;;1.80;99.90;;;;;;5107220;28;20049;-64
2021/12/12 12:02:52;;;;;;;30.75;13.00;;;1.60;99.90;;;;;;5104437;28;20035;-63
2021/12/12 12:05:38;;;;;;;31.00;14.45;;;1.60;99.90;;;;;;5063622;28;20043;-63
2021/12/12 12:08:10;;;;;;;33.67;14.38;;;1.50;99.90;;;;;;5096136;28;20024;-63
2021/12/12 12:11:09;;;;;;;22.73;11.38;;;1.50;99.90;;;;;;5099634;28;20031;-63
2021/12/12 12:13:46;;;;;;;28.85;11.90;;;1.30;99.90;;;;;;5113498;28;20035;-63
2021/12/12 12:16:17;;;;;;;28.75;13.48;;;1.20;99.90;;;;;;5113724;27;20059;-63
2021/12/12 12:19:04;;;;;;;26.10;12.13;;;1.20;99.90;;;;;;5113481;28;20453;-63
2021/12/12 12:21:39;;;;;;;23.67;11.70;;;1.30;99.90;;;;;;5113511;28;20051;-63
2021/12/12 12:24:20;;;;;;;28.00;11.90;;;1.30;99.90;;;;;;5113503;28;20015;-64
2021/12/12 12:26:53;;;;;;;39.85;11.60;;;1.30;99.90;;;;;;5113751;28;20024;-63
2021/12/12 12:29:21;;;;;;;32.30;12.82;;;1.30;99.90;;;;;;5113237;28;20028;-64
2021/12/12 12:32:21;;;;;;;33.58;12.10;;;1.30;99.90;;;;;;5113545;28;20106;-64
2021/12/12 12:34:49;;;;;;;39.70;11.57;;;1.30;99.90;;;;;;5112760;28;20114;-66
2021/12/12 12:37:52;;;;;;;29.92;10.70;;;1.20;99.90;;;;;;5112872;28;20034;-64
2021/12/12 12:40:36;;;;;;;40.63;11.75;;;1.40;99.90;;;;;;5112882;28;20031;-64
2021/12/12 12:43:29;;;;;;;22.95;10.57;;;1.40;99.90;;;;;;5113159;28;20024;-64
2021/12/12 12:46:32;;;;;;;26.65;10.30;;;1.40;99.90;;;;;;5113071;28;20015;-65
2021/12/12 12:49:25;;;;;;;27.75;10.52;;;1.50;99.90;;;;;;5112837;28;20661;-65
2021/12/12 12:52:12;;;;;;;17.58;7.72;;;2.00;99.90;;;;;;5113032;28;20117;-65
2021/12/12 12:55:16;;;;;;;31.88;10.85;;;2.20;99.90;;;;;;5112214;28;20035;-65
2021/12/12 12:57:43;;;;;;;22.92;11.20;;;2.30;99.90;;;;;;5088693;28;20036;-65
2021/12/12 13:00:18;;;;;;;29.63;11.90;;;2.00;99.90;;;;;;5092286;28;20048;-65
2021/12/12 13:03:19;;;;;;;24.67;10.88;;;1.90;99.90;;;;;;5092424;28;20032;-65
2021/12/12 13:06:04;;;;;;;25.70;10.43;;;1.80;99.90;;;;;;5092325;28;20113;-65
2021/12/12 13:09:07;;;;;;;17.02;7.47;;;1.80;99.90;;;;;;5092176;28;20035;-65
2021/12/12 13:12:09;;;;;;;20.00;9.85;;;2.50;99.90;;;;;;5092192;28;20107;-65
2021/12/12 13:14:57;;;;;;;25.52;12.10;;;4.00;99.90;;;;;;5091615;28;20023;-65
2021/12/12 13:17:41;;;;;;;27.80;11.90;;;3.60;99.90;;;;;;5092532;28;20048;-64
2021/12/12 13:20:28;;;;;;;20.88;9.95;;;3.00;99.90;;;;;;5100365;28;20513;-65
2021/12/12 13:23:28;;;;;;;20.77;10.23;;;2.60;99.90;;;;;;5108376;28;20019;-65
2021/12/12 13:26:04;;;;;;;20.05;9.90;;;2.40;99.90;;;;;;5112550;28;20057;-65
2021/12/12 13:28:42;;;;;;;19.17;10.13;;;2.20;99.90;;;;;;5112633;28;20111;-65
2021/12/12 13:31:22;;;;;;;18.70;9.18;;;2.20;99.90;;;;;;5112784;28;20031;-64
2021/12/12 13:33:48;;;;;;;;;;;2.20;99.90;;;;;;5113237;28;20062;-64
2021/12/12 13:36:35;;;;;;;18.00;9.10;;;2.10;99.90;;;;;;5112344;28;19919;-64
2021/12/12 13:39:09;;;;;;;17.90;8.10;;;2.10;99.90;;;;;;5112446;28;20104;-64
2021/12/12 13:41:52;;;;;;;18.98;9.68;;;2.00;99.90;;;;;;5112265;28;20102;-64
2021/12/12 13:44:35;;;;;;;13.40;7.03;;;2.00;99.90;;;;;;5112412;28;20030;-64
2021/12/12 13:47:34;;;;;;;15.20;8.38;;;1.90;99.90;;;;;;5104321;28;20023;-63
2021/12/12 13:50:05;;;;;;;12.27;6.63;;;1.90;99.90;;;;;;5101570;28;20032;-63
2021/12/12 13:52:50;;;;;;;12.48;7.68;;;1.90;99.90;;;;;;5100312;28;20065;-64
2021/12/12 13:55:24;;;;;;;10.32;5.63;;;1.80;99.90;;;;;;5099114;28;20039;-63
2021/12/12 13:58:23;;;;;;;10.25;6.90;;;1.90;99.90;;;;;;5097599;28;20028;-64
2021/12/12 14:01:05;;;;;;;10.70;6.38;;;1.80;99.90;;;;;;5103188;28;20036;-63
2021/12/12 14:03:57;;;;;;;10.57;6.20;;;1.80;99.90;;;;;;5105384;28;20047;-64